sensor_id;sensor_type;location;lat;lon;timestamp;pressure;altitude;pressure_sealevel;temperature;humidity
72038;BME280;59900;50.788;12.904;2023-04-09T00:01:18;98388.75;;;2.91;91.00
72038;BME280;59900;50.788;12.904;2023-04-09T00:03:43;98383.81;;;2.88;90.58
72038;BME280;59900;50.788;12.904;2023-04-09T00:06:10;98391.84;;;2.85;90.75
72038;BME280;59900;50.788;12.904;2023-04-09T00:08:35;98387.63;;;2.84;90.38
72038;BME280;59900;50.788;12.904;2023-04-09T00:11:01;98383.38;;;2.83;91.12
72038;BME280;59900;50.788;12.904;2023-04-09T00:13:26;98388.31;;;2.86;91.77
72038;BME280;59900;50.788;12.904;2023-04-09T00:15:51;98385.88;;;2.85;92.41
72038;BME280;59900;50.788;12.904;2023-04-09T00:18:16;98381.34;;;2.87;92.58
72038;BME280;59900;50.788;12.904;2023-04-09T00:20:45;98383.56;;;2.91;92.21
72038;BME280;59900;50.788;12.904;2023-04-09T00:23:10;98389.00;;;2.88;91.95
72038;BME280;59900;50.788;12.904;2023-04-09T00:25:35;98393.25;;;2.89;91.73
72038;BME280;59900;50.788;12.904;2023-04-09T00:28:01;98384.78;;;2.87;91.20
72038;BME280;59900;50.788;12.904;2023-04-09T00:30:29;98394.00;;;2.80;90.80
72038;BME280;59900;50.788;12.904;2023-04-09T00:32:55;98390.97;;;2.75;90.44
72038;BME280;59900;50.788;12.904;2023-04-09T00:35:20;98392.41;;;2.68;90.07
72038;BME280;59900;50.788;12.904;2023-04-09T00:37:46;98388.56;;;2.62;90.28
72038;BME280;59900;50.788;12.904;2023-04-09T00:40:11;98393.16;;;2.59;91.43
72038;BME280;59900;50.788;12.904;2023-04-09T00:42:36;98389.13;;;2.66;92.20
72038;BME280;59900;50.788;12.904;2023-04-09T00:45:03;98385.59;;;2.67;92.94
72038;BME280;59900;50.788;12.904;2023-04-09T00:47:29;98383.94;;;2.66;93.44
72038;BME280;59900;50.788;12.904;2023-04-09T00:49:55;98387.38;;;2.66;93.41
72038;BME280;59900;50.788;12.904;2023-04-09T00:52:20;98384.38;;;2.71;93.72
72038;BME280;59900;50.788;12.904;2023-04-09T00:54:47;98382.94;;;2.78;93.47
72038;BME280;59900;50.788;12.904;2023-04-09T00:57:14;98392.09;;;2.82;92.70
72038;BME280;59900;50.788;12.904;2023-04-09T00:59:39;98390.34;;;2.82;91.89
72038;BME280;59900;50.788;12.904;2023-04-09T01:02:05;98393.34;;;2.78;91.14
72038;BME280;59900;50.788;12.904;2023-04-09T01:04:30;98390.84;;;2.76;90.94
72038;BME280;59900;50.788;12.904;2023-04-09T01:07:20;98394.44;;;2.64;90.60
72038;BME280;59900;50.788;12.904;2023-04-09T01:10:04;98402.41;;;2.52;90.94
72038;BME280;59900;50.788;12.904;2023-04-09T01:12:35;98388.28;;;2.45;90.82
72038;BME280;59900;50.788;12.904;2023-04-09T01:15:06;98385.94;;;2.42;90.71
72038;BME280;59900;50.788;12.904;2023-04-09T01:17:38;98386.09;;;2.40;91.11
72038;BME280;59900;50.788;12.904;2023-04-09T01:25:43;98387.91;;;2.17;92.30
72038;BME280;59900;50.788;12.904;2023-04-09T01:28:41;98385.81;;;2.11;93.47
72038;BME280;59900;50.788;12.904;2023-04-09T01:31:12;98390.53;;;2.06;93.55
72038;BME280;59900;50.788;12.904;2023-04-09T01:33:40;98391.97;;;2.10;93.26
72038;BME280;59900;50.788;12.904;2023-04-09T01:36:06;98388.91;;;2.05;93.62
72038;BME280;59900;50.788;12.904;2023-04-09T01:38:34;98388.56;;;1.99;94.29
72038;BME280;59900;50.788;12.904;2023-04-09T01:41:00;98391.84;;;2.01;93.81
72038;BME280;59900;50.788;12.904;2023-04-09T01:43:27;98390.91;;;2.02;93.76
72038;BME280;59900;50.788;12.904;2023-04-09T01:45:53;98398.69;;;2.02;93.66
72038;BME280;59900;50.788;12.904;2023-04-09T01:48:19;98391.75;;;2.02;93.52
72038;BME280;59900;50.788;12.904;2023-04-09T01:50:45;98397.41;;;1.96;93.57
72038;BME280;59900;50.788;12.904;2023-04-09T01:53:11;98390.94;;;1.91;93.63
72038;BME280;59900;50.788;12.904;2023-04-09T01:55:37;98403.44;;;1.86;94.40
72038;BME280;59900;50.788;12.904;2023-04-09T01:58:02;98392.72;;;1.90;94.69
72038;BME280;59900;50.788;12.904;2023-04-09T02:00:34;98385.88;;;1.89;94.17
72038;BME280;59900;50.788;12.904;2023-04-09T02:05:35;98402.41;;;1.66;93.92
72038;BME280;59900;50.788;12.904;2023-04-09T02:08:02;98395.78;;;1.62;94.42
72038;BME280;59900;50.788;12.904;2023-04-09T02:10:29;98398.97;;;1.65;94.30
72038;BME280;59900;50.788;12.904;2023-04-09T02:12:56;98402.03;;;1.70;94.06
72038;BME280;59900;50.788;12.904;2023-04-09T02:15:22;98407.22;;;1.70;93.21
72038;BME280;59900;50.788;12.904;2023-04-09T02:17:48;98408.03;;;1.71;92.67
72038;BME280;59900;50.788;12.904;2023-04-09T02:20:17;98398.88;;;1.67;92.13
72038;BME280;59900;50.788;12.904;2023-04-09T02:22:43;98404.06;;;1.67;92.27
72038;BME280;59900;50.788;12.904;2023-04-09T02:25:08;98402.41;;;1.66;92.19
72038;BME280;59900;50.788;12.904;2023-04-09T02:27:34;98403.47;;;1.63;91.96
72038;BME280;59900;50.788;12.904;2023-04-09T02:29:59;98401.56;;;1.65;92.07
72038;BME280;59900;50.788;12.904;2023-04-09T02:32:24;98400.75;;;1.65;91.80
72038;BME280;59900;50.788;12.904;2023-04-09T02:34:50;98397.31;;;1.64;92.17
72038;BME280;59900;50.788;12.904;2023-04-09T02:37:15;98399.59;;;1.58;91.06
72038;BME280;59900;50.788;12.904;2023-04-09T02:39:42;98395.13;;;1.49;91.19
72038;BME280;59900;50.788;12.904;2023-04-09T02:42:07;98398.03;;;1.44;91.12
72038;BME280;59900;50.788;12.904;2023-04-09T02:44:32;98399.25;;;1.40;91.17
72038;BME280;59900;50.788;12.904;2023-04-09T02:46:57;98392.88;;;1.33;91.21
72038;BME280;59900;50.788;12.904;2023-04-09T02:49:23;98396.53;;;1.31;92.10
72038;BME280;59900;50.788;12.904;2023-04-09T02:51:48;98391.09;;;1.34;92.53
72038;BME280;59900;50.788;12.904;2023-04-09T02:54:13;98400.53;;;1.35;92.05
72038;BME280;59900;50.788;12.904;2023-04-09T02:56:39;98397.94;;;1.35;91.78
72038;BME280;59900;50.788;12.904;2023-04-09T02:59:04;98390.88;;;1.37;91.60
72038;BME280;59900;50.788;12.904;2023-04-09T03:01:29;98400.03;;;1.30;91.10
72038;BME280;59900;50.788;12.904;2023-04-09T03:03:54;98394.28;;;1.26;91.07
72038;BME280;59900;50.788;12.904;2023-04-09T03:06:20;98394.53;;;1.23;90.93
72038;BME280;59900;50.788;12.904;2023-04-09T03:08:45;98399.94;;;1.20;91.18
72038;BME280;59900;50.788;12.904;2023-04-09T03:11:10;98395.78;;;1.18;91.33
72038;BME280;59900;50.788;12.904;2023-04-09T03:13:35;98404.28;;;1.20;91.02
72038;BME280;59900;50.788;12.904;2023-04-09T03:16:01;98400.97;;;1.18;91.28
72038;BME280;59900;50.788;12.904;2023-04-09T03:18:26;98407.56;;;1.10;91.15
72038;BME280;59900;50.788;12.904;2023-04-09T03:20:51;98406.88;;;1.08;91.60
72038;BME280;59900;50.788;12.904;2023-04-09T03:23:16;98411.31;;;1.06;91.47
72038;BME280;59900;50.788;12.904;2023-04-09T03:25:42;98410.47;;;1.06;91.24
72038;BME280;59900;50.788;12.904;2023-04-09T03:28:07;98399.66;;;1.01;91.27
72038;BME280;59900;50.788;12.904;2023-04-09T03:30:32;98408.25;;;1.01;91.93
72038;BME280;59900;50.788;12.904;2023-04-09T03:32:57;98406.38;;;1.03;92.03
72038;BME280;59900;50.788;12.904;2023-04-09T03:35:23;98405.91;;;0.98;91.65
72038;BME280;59900;50.788;12.904;2023-04-09T03:37:48;98407.78;;;0.96;91.80
72038;BME280;59900;50.788;12.904;2023-04-09T03:40:14;98409.53;;;0.85;91.82
72038;BME280;59900;50.788;12.904;2023-04-09T03:42:41;98408.91;;;0.81;91.90
72038;BME280;59900;50.788;12.904;2023-04-09T03:45:06;98398.66;;;0.69;92.82
72038;BME280;59900;50.788;12.904;2023-04-09T03:47:32;98394.97;;;0.60;94.41
72038;BME280;59900;50.788;12.904;2023-04-09T03:49:57;98394.59;;;0.53;95.16
72038;BME280;59900;50.788;12.904;2023-04-09T03:52:22;98396.25;;;0.54;94.98
72038;BME280;59900;50.788;12.904;2023-04-09T03:54:47;98398.50;;;0.59;95.56
72038;BME280;59900;50.788;12.904;2023-04-09T03:57:13;98399.69;;;0.66;95.79
72038;BME280;59900;50.788;12.904;2023-04-09T03:59:38;98404.28;;;0.74;95.00
72038;BME280;59900;50.788;12.904;2023-04-09T04:02:03;98405.97;;;0.75;94.57
72038;BME280;59900;50.788;12.904;2023-04-09T04:04:28;98409.38;;;0.75;93.98
72038;BME280;59900;50.788;12.904;2023-04-09T04:06:54;98414.31;;;0.78;94.20
72038;BME280;59900;50.788;12.904;2023-04-09T04:09:19;98419.38;;;0.80;93.32
72038;BME280;59900;50.788;12.904;2023-04-09T04:11:44;98418.66;;;0.78;93.10
72038;BME280;59900;50.788;12.904;2023-04-09T04:14:10;98421.25;;;0.78;93.02
72038;BME280;59900;50.788;12.904;2023-04-09T04:16:35;98421.03;;;0.81;93.08
72038;BME280;59900;50.788;12.904;2023-04-09T04:19:00;98411.59;;;0.80;92.61
72038;BME280;59900;50.788;12.904;2023-04-09T04:21:25;98417.75;;;0.79;93.15
72038;BME280;59900;50.788;12.904;2023-04-09T04:23:51;98418.56;;;0.79;92.91
72038;BME280;59900;50.788;12.904;2023-04-09T04:26:16;98422.19;;;0.77;92.78
72038;BME280;59900;50.788;12.904;2023-04-09T04:28:41;98427.56;;;0.74;92.73
72038;BME280;59900;50.788;12.904;2023-04-09T04:31:10;98434.41;;;0.75;92.45
72038;BME280;59900;50.788;12.904;2023-04-09T04:33:37;98440.63;;;0.72;92.69
72038;BME280;59900;50.788;12.904;2023-04-09T04:36:10;98436.28;;;0.73;92.66
72038;BME280;59900;50.788;12.904;2023-04-09T04:38:36;98438.28;;;0.69;92.40
72038;BME280;59900;50.788;12.904;2023-04-09T04:41:02;98441.53;;;0.60;91.99
72038;BME280;59900;50.788;12.904;2023-04-09T04:43:27;98445.16;;;0.57;92.84
72038;BME280;59900;50.788;12.904;2023-04-09T04:45:53;98444.34;;;0.57;92.88
72038;BME280;59900;50.788;12.904;2023-04-09T04:48:18;98444.72;;;0.64;92.89
72038;BME280;59900;50.788;12.904;2023-04-09T04:50:43;98445.34;;;0.67;92.65
72038;BME280;59900;50.788;12.904;2023-04-09T04:53:09;98446.25;;;0.66;92.51
72038;BME280;59900;50.788;12.904;2023-04-09T04:55:35;98445.22;;;0.69;92.83
72038;BME280;59900;50.788;12.904;2023-04-09T04:58:01;98447.56;;;0.72;92.56
72038;BME280;59900;50.788;12.904;2023-04-09T05:00:26;98443.31;;;0.71;92.49
72038;BME280;59900;50.788;12.904;2023-04-09T05:02:51;98440.59;;;0.61;92.93
72038;BME280;59900;50.788;12.904;2023-04-09T05:05:16;98446.97;;;0.68;92.80
72038;BME280;59900;50.788;12.904;2023-04-09T05:07:42;98445.34;;;0.67;93.40
72038;BME280;59900;50.788;12.904;2023-04-09T05:10:08;98446.03;;;0.69;93.34
72038;BME280;59900;50.788;12.904;2023-04-09T05:12:33;98449.56;;;0.68;93.76
72038;BME280;59900;50.788;12.904;2023-04-09T05:14:58;98449.09;;;0.74;93.88
72038;BME280;59900;50.788;12.904;2023-04-09T05:17:23;98448.19;;;0.75;93.99
72038;BME280;59900;50.788;12.904;2023-04-09T05:19:50;98447.13;;;0.78;93.79
72038;BME280;59900;50.788;12.904;2023-04-09T05:22:15;98440.28;;;0.77;94.39
72038;BME280;59900;50.788;12.904;2023-04-09T05:24:41;98446.06;;;0.80;94.30
72038;BME280;59900;50.788;12.904;2023-04-09T05:27:06;98447.13;;;0.78;94.97
72038;BME280;59900;50.788;12.904;2023-04-09T05:29:31;98446.66;;;0.73;95.84
72038;BME280;59900;50.788;12.904;2023-04-09T05:31:56;98441.34;;;0.74;96.21
72038;BME280;59900;50.788;12.904;2023-04-09T05:34:22;98450.09;;;0.84;96.54
72038;BME280;59900;50.788;12.904;2023-04-09T05:36:47;98449.03;;;0.87;95.84
72038;BME280;59900;50.788;12.904;2023-04-09T05:39:12;98444.69;;;0.87;96.11
72038;BME280;59900;50.788;12.904;2023-04-09T05:41:37;98451.03;;;0.94;96.20
72038;BME280;59900;50.788;12.904;2023-04-09T05:44:03;98452.25;;;1.01;96.53
72038;BME280;59900;50.788;12.904;2023-04-09T05:46:28;98455.09;;;1.09;96.67
72038;BME280;59900;50.788;12.904;2023-04-09T05:48:53;98445.34;;;1.13;96.84
72038;BME280;59900;50.788;12.904;2023-04-09T05:51:19;98458.16;;;1.14;97.19
72038;BME280;59900;50.788;12.904;2023-04-09T05:53:44;98454.63;;;1.16;97.26
72038;BME280;59900;50.788;12.904;2023-04-09T05:56:12;98452.50;;;1.21;97.98
72038;BME280;59900;50.788;12.904;2023-04-09T05:58:38;98464.31;;;1.25;98.00
72038;BME280;59900;50.788;12.904;2023-04-09T06:01:03;98469.00;;;1.31;98.39
72038;BME280;59900;50.788;12.904;2023-04-09T06:03:29;98465.13;;;1.36;97.80
72038;BME280;59900;50.788;12.904;2023-04-09T06:05:54;98467.63;;;1.38;97.66
72038;BME280;59900;50.788;12.904;2023-04-09T06:08:19;98467.16;;;1.44;97.76
72038;BME280;59900;50.788;12.904;2023-04-09T06:10:44;98471.84;;;1.50;97.41
72038;BME280;59900;50.788;12.904;2023-04-09T06:13:10;98465.28;;;1.57;97.23
72038;BME280;59900;50.788;12.904;2023-04-09T06:15:37;98467.16;;;1.66;96.88
72038;BME280;59900;50.788;12.904;2023-04-09T06:18:02;98470.94;;;1.73;96.07
72038;BME280;59900;50.788;12.904;2023-04-09T06:20:27;98475.63;;;1.68;95.53
72038;BME280;59900;50.788;12.904;2023-04-09T06:22:53;98474.25;;;1.75;95.68
72038;BME280;59900;50.788;12.904;2023-04-09T06:25:18;98478.72;;;1.84;95.82
72038;BME280;59900;50.788;12.904;2023-04-09T06:27:43;98481.75;;;1.89;95.36
72038;BME280;59900;50.788;12.904;2023-04-09T06:30:09;98484.34;;;2.00;95.71
72038;BME280;59900;50.788;12.904;2023-04-09T06:32:34;98486.91;;;2.11;95.17
72038;BME280;59900;50.788;12.904;2023-04-09T06:35:00;98489.03;;;2.17;95.14
72038;BME280;59900;50.788;12.904;2023-04-09T06:37:25;98486.94;;;2.22;94.69
72038;BME280;59900;50.788;12.904;2023-04-09T06:39:50;98502.69;;;2.31;94.72
72038;BME280;59900;50.788;12.904;2023-04-09T06:42:16;98497.38;;;2.43;94.81
72038;BME280;59900;50.788;12.904;2023-04-09T06:44:41;98504.53;;;2.51;94.27
72038;BME280;59900;50.788;12.904;2023-04-09T06:47:06;98500.53;;;2.58;94.00
72038;BME280;59900;50.788;12.904;2023-04-09T06:49:32;98502.63;;;2.64;94.09
72038;BME280;59900;50.788;12.904;2023-04-09T06:51:58;98506.25;;;2.72;93.72
72038;BME280;59900;50.788;12.904;2023-04-09T06:54:23;98507.72;;;2.86;93.34
72038;BME280;59900;50.788;12.904;2023-04-09T06:56:48;98499.06;;;2.97;92.57
72038;BME280;59900;50.788;12.904;2023-04-09T06:59:13;98504.47;;;3.05;92.00
72038;BME280;59900;50.788;12.904;2023-04-09T07:01:40;98503.47;;;3.17;91.80
72038;BME280;59900;50.788;12.904;2023-04-09T07:04:05;98502.31;;;3.30;91.28
72038;BME280;59900;50.788;12.904;2023-04-09T07:06:31;98501.88;;;3.46;91.39
72038;BME280;59900;50.788;12.904;2023-04-09T07:08:56;98500.72;;;3.60;90.83
72038;BME280;59900;50.788;12.904;2023-04-09T07:11:21;98501.31;;;3.73;90.37
72038;BME280;59900;50.788;12.904;2023-04-09T07:13:46;98492.75;;;3.82;89.90
72038;BME280;59900;50.788;12.904;2023-04-09T07:16:12;98489.38;;;3.91;89.70
72038;BME280;59900;50.788;12.904;2023-04-09T07:18:37;98490.50;;;3.98;89.25
72038;BME280;59900;50.788;12.904;2023-04-09T07:21:02;98485.19;;;4.09;89.03
72038;BME280;59900;50.788;12.904;2023-04-09T07:23:27;98494.38;;;4.13;88.46
72038;BME280;59900;50.788;12.904;2023-04-09T07:25:53;98493.34;;;4.25;88.71
72038;BME280;59900;50.788;12.904;2023-04-09T07:28:18;98494.84;;;4.37;88.25
72038;BME280;59900;50.788;12.904;2023-04-09T07:30:43;98489.66;;;4.47;88.45
72038;BME280;59900;50.788;12.904;2023-04-09T07:33:10;98490.09;;;4.52;87.83
72038;BME280;59900;50.788;12.904;2023-04-09T07:35:35;98489.69;;;4.57;87.38
72038;BME280;59900;50.788;12.904;2023-04-09T07:38:00;98493.53;;;4.62;87.21
72038;BME280;59900;50.788;12.904;2023-04-09T07:40:26;98492.44;;;4.65;87.13
72038;BME280;59900;50.788;12.904;2023-04-09T07:42:51;98483.13;;;4.62;87.18
72038;BME280;59900;50.788;12.904;2023-04-09T07:45:17;98486.13;;;4.67;87.14
72038;BME280;59900;50.788;12.904;2023-04-09T07:47:43;98490.38;;;4.68;87.39
72038;BME280;59900;50.788;12.904;2023-04-09T07:50:08;98486.84;;;4.69;87.36
72038;BME280;59900;50.788;12.904;2023-04-09T07:52:34;98485.84;;;4.70;87.44
72038;BME280;59900;50.788;12.904;2023-04-09T07:54:59;98482.16;;;4.73;87.67
72038;BME280;59900;50.788;12.904;2023-04-09T07:57:24;98482.97;;;4.73;87.93
72038;BME280;59900;50.788;12.904;2023-04-09T07:59:51;98489.56;;;4.77;87.93
72038;BME280;59900;50.788;12.904;2023-04-09T08:02:17;98481.63;;;4.79;87.55
72038;BME280;59900;50.788;12.904;2023-04-09T08:04:42;98489.03;;;4.83;87.87
72038;BME280;59900;50.788;12.904;2023-04-09T08:07:08;98484.38;;;4.87;87.42
72038;BME280;59900;50.788;12.904;2023-04-09T08:09:33;98479.84;;;4.89;86.87
72038;BME280;59900;50.788;12.904;2023-04-09T08:11:58;98484.09;;;4.90;87.19
72038;BME280;59900;50.788;12.904;2023-04-09T08:14:23;98480.97;;;4.96;87.16
72038;BME280;59900;50.788;12.904;2023-04-09T08:16:50;98488.34;;;5.00;87.26
72038;BME280;59900;50.788;12.904;2023-04-09T08:19:15;98480.09;;;5.05;87.38
72038;BME280;59900;50.788;12.904;2023-04-09T08:21:41;98485.75;;;5.10;86.92
72038;BME280;59900;50.788;12.904;2023-04-09T08:24:07;98485.31;;;5.15;86.43
72038;BME280;59900;50.788;12.904;2023-04-09T08:26:32;98481.31;;;5.20;86.43
72038;BME280;59900;50.788;12.904;2023-04-09T08:28:58;98477.22;;;5.27;86.17
72038;BME280;59900;50.788;12.904;2023-04-09T08:31:23;98477.50;;;5.34;85.95
72038;BME280;59900;50.788;12.904;2023-04-09T08:33:49;98478.56;;;5.41;85.93
72038;BME280;59900;50.788;12.904;2023-04-09T08:36:15;98477.16;;;5.46;85.43
72038;BME280;59900;50.788;12.904;2023-04-09T08:38:40;98478.25;;;5.53;85.22
72038;BME280;59900;50.788;12.904;2023-04-09T08:41:06;98474.69;;;5.54;84.95
72038;BME280;59900;50.788;12.904;2023-04-09T08:43:32;98477.97;;;5.56;84.83
72038;BME280;59900;50.788;12.904;2023-04-09T08:45:59;98473.53;;;5.66;84.40
72038;BME280;59900;50.788;12.904;2023-04-09T08:48:24;98479.28;;;5.70;84.16
72038;BME280;59900;50.788;12.904;2023-04-09T08:50:50;98469.50;;;5.82;83.69
72038;BME280;59900;50.788;12.904;2023-04-09T08:53:16;98472.78;;;5.93;83.91
72038;BME280;59900;50.788;12.904;2023-04-09T08:55:44;98471.78;;;6.04;83.19
72038;BME280;59900;50.788;12.904;2023-04-09T08:58:10;98468.44;;;6.11;82.66
72038;BME280;59900;50.788;12.904;2023-04-09T09:00:36;98471.44;;;6.16;81.38
72038;BME280;59900;50.788;12.904;2023-04-09T09:03:08;98474.28;;;6.23;80.84
72038;BME280;59900;50.788;12.904;2023-04-09T09:05:39;98478.66;;;6.32;80.98
72038;BME280;59900;50.788;12.904;2023-04-09T09:08:13;98471.59;;;6.42;80.39
72038;BME280;59900;50.788;12.904;2023-04-09T09:10:46;98480.03;;;6.54;80.61
72038;BME280;59900;50.788;12.904;2023-04-09T09:13:20;98475.72;;;6.62;80.05
72038;BME280;59900;50.788;12.904;2023-04-09T09:15:46;98475.13;;;6.68;79.45
72038;BME280;59900;50.788;12.904;2023-04-09T09:18:15;98473.25;;;6.78;78.39
72038;BME280;59900;50.788;12.904;2023-04-09T09:20:40;98465.50;;;6.87;78.42
72038;BME280;59900;50.788;12.904;2023-04-09T09:23:06;98463.78;;;6.95;78.21
72038;BME280;59900;50.788;12.904;2023-04-09T09:25:39;98459.56;;;7.02;77.50
72038;BME280;59900;50.788;12.904;2023-04-09T09:28:10;98457.84;;;7.11;77.13
72038;BME280;59900;50.788;12.904;2023-04-09T09:30:36;98457.63;;;7.22;76.64
72038;BME280;59900;50.788;12.904;2023-04-09T09:35:29;98460.88;;;7.42;76.65
72038;BME280;59900;50.788;12.904;2023-04-09T09:38:02;98457.16;;;7.52;76.29
72038;BME280;59900;50.788;12.904;2023-04-09T09:40:28;98460.47;;;7.54;75.75
72038;BME280;59900;50.788;12.904;2023-04-09T09:42:56;98459.81;;;7.60;75.07
72038;BME280;59900;50.788;12.904;2023-04-09T09:45:23;98457.28;;;7.68;74.67
72038;BME280;59900;50.788;12.904;2023-04-09T09:47:49;98457.78;;;7.72;74.63
72038;BME280;59900;50.788;12.904;2023-04-09T09:50:15;98459.94;;;7.76;75.25
72038;BME280;59900;50.788;12.904;2023-04-09T09:52:43;98450.97;;;7.87;74.94
72038;BME280;59900;50.788;12.904;2023-04-09T09:55:12;98458.88;;;7.95;74.25
72038;BME280;59900;50.788;12.904;2023-04-09T09:57:41;98458.06;;;7.95;73.48
72038;BME280;59900;50.788;12.904;2023-04-09T10:00:10;98456.59;;;8.00;73.71
72038;BME280;59900;50.788;12.904;2023-04-09T10:02:47;98452.22;;;8.09;74.13
72038;BME280;59900;50.788;12.904;2023-04-09T10:05:15;98450.66;;;8.24;74.44
72038;BME280;59900;50.788;12.904;2023-04-09T10:07:40;98443.50;;;8.34;74.15
72038;BME280;59900;50.788;12.904;2023-04-09T10:10:06;98439.44;;;8.39;73.01
72038;BME280;59900;50.788;12.904;2023-04-09T10:12:33;98426.88;;;8.51;73.21
72038;BME280;59900;50.788;12.904;2023-04-09T10:14:58;98443.09;;;8.63;73.46
72038;BME280;59900;50.788;12.904;2023-04-09T10:17:28;98434.25;;;8.72;72.92
72038;BME280;59900;50.788;12.904;2023-04-09T10:20:00;98429.66;;;8.82;72.07
72038;BME280;59900;50.788;12.904;2023-04-09T10:22:31;98430.16;;;8.85;72.30
72038;BME280;59900;50.788;12.904;2023-04-09T10:24:58;98430.16;;;8.93;71.81
72038;BME280;59900;50.788;12.904;2023-04-09T10:27:25;98428.03;;;8.97;70.90
72038;BME280;59900;50.788;12.904;2023-04-09T10:29:52;98426.56;;;9.02;70.10
72038;BME280;59900;50.788;12.904;2023-04-09T10:32:19;98428.84;;;9.06;70.48
72038;BME280;59900;50.788;12.904;2023-04-09T10:34:45;98427.22;;;9.13;70.86
72038;BME280;59900;50.788;12.904;2023-04-09T10:37:21;98420.31;;;9.20;70.65
72038;BME280;59900;50.788;12.904;2023-04-09T10:39:48;98417.19;;;9.32;70.92
72038;BME280;59900;50.788;12.904;2023-04-09T10:42:17;98418.66;;;9.35;68.53
72038;BME280;59900;50.788;12.904;2023-04-09T10:44:43;98416.69;;;9.45;69.03
72038;BME280;59900;50.788;12.904;2023-04-09T10:47:09;98413.19;;;9.61;69.53
72038;BME280;59900;50.788;12.904;2023-04-09T10:49:39;98416.28;;;9.72;68.53
72038;BME280;59900;50.788;12.904;2023-04-09T10:52:10;98421.34;;;9.82;69.24
72038;BME280;59900;50.788;12.904;2023-04-09T10:54:44;98420.97;;;9.93;69.07
72038;BME280;59900;50.788;12.904;2023-04-09T10:57:16;98412.25;;;9.92;65.17
72038;BME280;59900;50.788;12.904;2023-04-09T10:59:53;98418.47;;;9.99;66.36
72038;BME280;59900;50.788;12.904;2023-04-09T11:08:09;98410.56;;;10.07;64.63
72038;BME280;59900;50.788;12.904;2023-04-09T11:10:36;98407.28;;;10.13;65.50
72038;BME280;59900;50.788;12.904;2023-04-09T11:13:02;98400.22;;;10.14;65.04
72038;BME280;59900;50.788;12.904;2023-04-09T11:15:28;98402.81;;;10.22;65.51
72038;BME280;59900;50.788;12.904;2023-04-09T11:17:54;98392.28;;;10.22;64.25
72038;BME280;59900;50.788;12.904;2023-04-09T11:20:21;98392.34;;;10.14;64.32
72038;BME280;59900;50.788;12.904;2023-04-09T11:22:49;98386.44;;;10.12;64.20
72038;BME280;59900;50.788;12.904;2023-04-09T11:25:19;98390.38;;;10.08;63.96
72038;BME280;59900;50.788;12.904;2023-04-09T11:27:44;98394.97;;;10.14;64.41
72038;BME280;59900;50.788;12.904;2023-04-09T11:30:10;98396.88;;;10.28;64.47
72038;BME280;59900;50.788;12.904;2023-04-09T11:32:36;98393.84;;;10.39;64.50
72038;BME280;59900;50.788;12.904;2023-04-09T11:35:01;98392.09;;;10.54;64.85
72038;BME280;59900;50.788;12.904;2023-04-09T11:37:27;98393.81;;;10.70;65.06
72038;BME280;59900;50.788;12.904;2023-04-09T11:39:53;98391.84;;;10.87;65.09
72038;BME280;59900;50.788;12.904;2023-04-09T11:42:19;98392.06;;;10.85;62.18
72038;BME280;59900;50.788;12.904;2023-04-09T11:44:46;98393.91;;;10.99;62.39
72038;BME280;59900;50.788;12.904;2023-04-09T11:47:12;98387.03;;;11.13;61.72
72038;BME280;59900;50.788;12.904;2023-04-09T11:49:38;98384.16;;;11.22;61.29
72038;BME280;59900;50.788;12.904;2023-04-09T11:52:04;98381.91;;;11.34;60.73
72038;BME280;59900;50.788;12.904;2023-04-09T11:54:33;98377.47;;;11.49;60.16
72038;BME280;59900;50.788;12.904;2023-04-09T11:56:59;98379.41;;;11.70;60.21
72038;BME280;59900;50.788;12.904;2023-04-09T11:59:24;98384.41;;;11.94;59.72
72038;BME280;59900;50.788;12.904;2023-04-09T12:01:50;98381.00;;;12.15;58.17
72038;BME280;59900;50.788;12.904;2023-04-09T12:04:19;98384.59;;;12.28;58.33
72038;BME280;59900;50.788;12.904;2023-04-09T12:06:45;98380.53;;;12.47;56.89
72038;BME280;59900;50.788;12.904;2023-04-09T12:09:10;98380.41;;;12.55;56.15
72038;BME280;59900;50.788;12.904;2023-04-09T12:11:38;98384.41;;;12.51;53.60
72038;BME280;59900;50.788;12.904;2023-04-09T12:14:06;98375.91;;;12.49;53.31
72038;BME280;59900;50.788;12.904;2023-04-09T12:16:33;98378.28;;;12.44;53.63
72038;BME280;59900;50.788;12.904;2023-04-09T12:19:05;98379.47;;;12.63;54.27
72038;BME280;59900;50.788;12.904;2023-04-09T12:21:51;98375.25;;;12.89;53.36
72038;BME280;59900;50.788;12.904;2023-04-09T12:24:20;98377.19;;;13.23;53.31
72038;BME280;59900;50.788;12.904;2023-04-09T12:26:46;98376.31;;;13.44;50.28
72038;BME280;59900;50.788;12.904;2023-04-09T12:29:13;98382.41;;;13.79;51.13
72038;BME280;59900;50.788;12.904;2023-04-09T12:31:38;98374.00;;;14.10;49.48
72038;BME280;59900;50.788;12.904;2023-04-09T12:34:04;98385.72;;;14.41;50.33
72038;BME280;59900;50.788;12.904;2023-04-09T12:36:29;98376.22;;;14.60;49.14
72038;BME280;59900;50.788;12.904;2023-04-09T12:38:54;98371.38;;;14.70;46.96
72038;BME280;59900;50.788;12.904;2023-04-09T12:41:20;98375.25;;;14.87;47.70
72038;BME280;59900;50.788;12.904;2023-04-09T12:43:45;98378.72;;;15.14;46.98
72038;BME280;59900;50.788;12.904;2023-04-09T12:46:12;98366.88;;;15.30;45.68
72038;BME280;59900;50.788;12.904;2023-04-09T12:48:37;98369.75;;;15.48;44.87
72038;BME280;59900;50.788;12.904;2023-04-09T12:51:03;98368.50;;;15.63;45.54
72038;BME280;59900;50.788;12.904;2023-04-09T12:53:29;98363.63;;;15.47;44.56
72038;BME280;59900;50.788;12.904;2023-04-09T12:55:54;98364.19;;;15.76;45.93
72038;BME280;59900;50.788;12.904;2023-04-09T12:58:19;98366.22;;;15.74;43.87
72038;BME280;59900;50.788;12.904;2023-04-09T13:00:45;98373.09;;;15.94;44.40
72038;BME280;59900;50.788;12.904;2023-04-09T13:03:10;98370.34;;;15.56;44.34
72038;BME280;59900;50.788;12.904;2023-04-09T13:05:36;98362.22;;;15.25;45.71
72038;BME280;59900;50.788;12.904;2023-04-09T13:08:01;98370.56;;;15.09;46.04
72038;BME280;59900;50.788;12.904;2023-04-09T13:10:26;98358.16;;;14.90;46.85